sensor_id;sensor_type;location;lat;lon;timestamp;temperature;humidity
50606;DHT22;36557;53.572;10.170;2023-05-10T06:35:29;15.50;92.40
50606;DHT22;36557;53.572;10.170;2023-05-10T06:37:55;15.60;92.70
50606;DHT22;36557;53.572;10.170;2023-05-10T06:40:20;15.90;91.60
50606;DHT22;36557;53.572;10.170;2023-05-10T06:42:47;16.00;91.20
50606;DHT22;36557;53.572;10.170;2023-05-10T06:45:14;16.20;91.50
50606;DHT22;36557;53.572;10.170;2023-05-10T06:47:40;16.40;91.60
50606;DHT22;36557;53.572;10.170;2023-05-10T06:50:08;16.40;91.00
50606;DHT22;36557;53.572;10.170;2023-05-10T06:52:34;16.50;90.70
50606;DHT22;36557;53.572;10.170;2023-05-10T06:54:59;16.50;91.00
50606;DHT22;36557;53.572;10.170;2023-05-10T06:57:26;16.50;90.50
50606;DHT22;36557;53.572;10.170;2023-05-10T06:59:51;16.00;90.90
50606;DHT22;36557;53.572;10.170;2023-05-10T07:02:17;16.10;92.00
50606;DHT22;36557;53.572;10.170;2023-05-10T07:04:43;16.10;90.80
50606;DHT22;36557;53.572;10.170;2023-05-10T07:07:09;16.00;91.10
50606;DHT22;36557;53.572;10.170;2023-05-10T07:09:35;16.10;91.80
50606;DHT22;36557;53.572;10.170;2023-05-10T07:12:00;16.30;91.30
50606;DHT22;36557;53.572;10.170;2023-05-10T07:14:27;16.40;91.30
50606;DHT22;36557;53.572;10.170;2023-05-10T07:16:53;16.70;90.70
50606;DHT22;36557;53.572;10.170;2023-05-10T07:19:19;17.00;90.30
50606;DHT22;36557;53.572;10.170;2023-05-10T07:21:45;17.00;90.40
50606;DHT22;36557;53.572;10.170;2023-05-10T07:24:11;16.80;89.80
50606;DHT22;36557;53.572;10.170;2023-05-10T07:26:37;16.60;90.40
50606;DHT22;36557;53.572;10.170;2023-05-10T07:29:02;16.60;90.10
50606;DHT22;36557;53.572;10.170;2023-05-10T07:31:28;16.70;90.20
50606;DHT22;36557;53.572;10.170;2023-05-10T07:33:54;16.50;90.20
50606;DHT22;36557;53.572;10.170;2023-05-10T07:36:19;16.60;90.40
50606;DHT22;36557;53.572;10.170;2023-05-10T07:38:45;16.70;91.10
50606;DHT22;36557;53.572;10.170;2023-05-10T07:41:14;17.00;90.90
50606;DHT22;36557;53.572;10.170;2023-05-10T07:43:40;17.60;90.60
50606;DHT22;36557;53.572;10.170;2023-05-10T07:46:05;17.90;89.60
50606;DHT22;36557;53.572;10.170;2023-05-10T07:48:31;17.80;89.40
50606;DHT22;36557;53.572;10.170;2023-05-10T07:50:57;17.80;88.40
50606;DHT22;36557;53.572;10.170;2023-05-10T07:53:22;18.20;89.30
50606;DHT22;36557;53.572;10.170;2023-05-10T07:55:54;18.60;88.50
50606;DHT22;36557;53.572;10.170;2023-05-10T07:58:22;18.40;86.70
50606;DHT22;36557;53.572;10.170;2023-05-10T08:00:48;18.00;86.40
50606;DHT22;36557;53.572;10.170;2023-05-10T08:03:14;18.10;88.80
50606;DHT22;36557;53.572;10.170;2023-05-10T08:05:40;18.20;88.20
50606;DHT22;36557;53.572;10.170;2023-05-10T08:08:06;18.10;87.50
50606;DHT22;36557;53.572;10.170;2023-05-10T08:10:32;18.00;89.20
50606;DHT22;36557;53.572;10.170;2023-05-10T08:12:57;17.90;85.40
50606;DHT22;36557;53.572;10.170;2023-05-10T08:15:24;17.80;86.60
50606;DHT22;36557;53.572;10.170;2023-05-10T08:17:51;17.50;88.10
50606;DHT22;36557;53.572;10.170;2023-05-10T08:20:17;17.50;88.70
50606;DHT22;36557;53.572;10.170;2023-05-10T08:22:45;17.40;88.40
50606;DHT22;36557;53.572;10.170;2023-05-10T08:25:11;17.50;87.90
50606;DHT22;36557;53.572;10.170;2023-05-10T08:27:36;17.60;88.80
50606;DHT22;36557;53.572;10.170;2023-05-10T08:30:02;17.60;87.20
50606;DHT22;36557;53.572;10.170;2023-05-10T08:32:28;17.70;88.60
50606;DHT22;36557;53.572;10.170;2023-05-10T08:34:54;17.70;87.90
50606;DHT22;36557;53.572;10.170;2023-05-10T08:37:22;18.20;87.20
50606;DHT22;36557;53.572;10.170;2023-05-10T08:39:48;18.40;87.40
50606;DHT22;36557;53.572;10.170;2023-05-10T08:42:18;18.10;86.60
50606;DHT22;36557;53.572;10.170;2023-05-10T08:44:48;18.10;87.10
50606;DHT22;36557;53.572;10.170;2023-05-10T08:47:16;17.90;87.00
50606;DHT22;36557;53.572;10.170;2023-05-10T08:49:44;18.00;87.60
50606;DHT22;36557;53.572;10.170;2023-05-10T08:52:15;18.10;87.70
50606;DHT22;36557;53.572;10.170;2023-05-10T08:54:42;18.10;88.40
50606;DHT22;36557;53.572;10.170;2023-05-10T08:57:08;18.10;87.00
50606;DHT22;36557;53.572;10.170;2023-05-10T08:59:34;18.20;88.50
50606;DHT22;36557;53.572;10.170;2023-05-10T09:02:00;18.50;88.60
50606;DHT22;36557;53.572;10.170;2023-05-10T09:04:27;18.90;87.60
50606;DHT22;36557;53.572;10.170;2023-05-10T09:06:53;18.70;85.70
50606;DHT22;36557;53.572;10.170;2023-05-10T09:09:20;18.90;87.60
50606;DHT22;36557;53.572;10.170;2023-05-10T09:11:47;18.80;86.00
50606;DHT22;36557;53.572;10.170;2023-05-10T09:14:13;18.60;86.60
50606;DHT22;36557;53.572;10.170;2023-05-10T09:16:40;18.60;86.70
50606;DHT22;36557;53.572;10.170;2023-05-10T09:19:07;18.10;88.40
50606;DHT22;36557;53.572;10.170;2023-05-10T09:21:35;17.90;87.70
50606;DHT22;36557;53.572;10.170;2023-05-10T09:24:06;17.80;89.80
50606;DHT22;36557;53.572;10.170;2023-05-10T09:26:32;18.20;89.30
50606;DHT22;36557;53.572;10.170;2023-05-10T09:28:59;18.10;90.20
50606;DHT22;36557;53.572;10.170;2023-05-10T09:31:46;18.00;89.70
50606;DHT22;36557;53.572;10.170;2023-05-10T09:34:20;18.10;90.40
50606;DHT22;36557;53.572;10.170;2023-05-10T09:36:56;17.90;89.60
50606;DHT22;36557;53.572;10.170;2023-05-10T09:39:36;17.90;90.10
50606;DHT22;36557;53.572;10.170;2023-05-10T09:42:07;18.20;90.40
50606;DHT22;36557;53.572;10.170;2023-05-10T09:44:33;18.00;90.70
50606;DHT22;36557;53.572;10.170;2023-05-10T09:47:03;18.10;90.10
50606;DHT22;36557;53.572;10.170;2023-05-10T09:49:29;17.80;90.40
50606;DHT22;36557;53.572;10.170;2023-05-10T09:52:06;17.60;90.40
50606;DHT22;36557;53.572;10.170;2023-05-10T09:54:32;17.70;90.50
50606;DHT22;36557;53.572;10.170;2023-05-10T09:56:58;17.50;90.70
50606;DHT22;36557;53.572;10.170;2023-05-10T09:59:28;17.40;91.20
50606;DHT22;36557;53.572;10.170;2023-05-10T10:02:00;17.20;91.50
50606;DHT22;36557;53.572;10.170;2023-05-10T10:04:26;17.10;91.20
50606;DHT22;36557;53.572;10.170;2023-05-10T10:07:02;17.00;91.70
50606;DHT22;36557;53.572;10.170;2023-05-10T10:09:29;16.80;92.10
50606;DHT22;36557;53.572;10.170;2023-05-10T10:11:55;16.90;92.70
50606;DHT22;36557;53.572;10.170;2023-05-10T10:14:22;16.80;92.90
50606;DHT22;36557;53.572;10.170;2023-05-10T10:16:50;16.70;93.40
50606;DHT22;36557;53.572;10.170;2023-05-10T10:19:20;16.60;94.50
50606;DHT22;36557;53.572;10.170;2023-05-10T10:21:47;16.30;95.30
50606;DHT22;36557;53.572;10.170;2023-05-10T10:24:12;16.20;97.50
50606;DHT22;36557;53.572;10.170;2023-05-10T10:26:39;16.20;99.30
50606;DHT22;36557;53.572;10.170;2023-05-10T10:34:29;15.90;99.90
50606;DHT22;36557;53.572;10.170;2023-05-10T10:36:56;15.70;99.90
50606;DHT22;36557;53.572;10.170;2023-05-10T10:39:23;15.60;99.90
50606;DHT22;36557;53.572;10.170;2023-05-10T10:41:57;15.40;99.90
50606;DHT22;36557;53.572;10.170;2023-05-10T10:44:23;15.40;99.90
50606;DHT22;36557;53.572;10.170;2023-05-10T10:47:33;15.30;99.90
50606;DHT22;36557;53.572;10.170;2023-05-10T10:57:55;14.80;99.90
50606;DHT22;36557;53.572;10.170;2023-05-10T11:00:30;14.80;99.90
50606;DHT22;36557;53.572;10.170;2023-05-10T11:03:03;14.90;99.90
50606;DHT22;36557;53.572;10.170;2023-05-10T11:07:59;15.10;99.90
50606;DHT22;36557;53.572;10.170;2023-05-10T11:10:26;15.10;99.90
50606;DHT22;36557;53.572;10.170;2023-05-10T11:13:06;15.30;99.90
50606;DHT22;36557;53.572;10.170;2023-05-10T11:15:37;15.50;99.90
50606;DHT22;36557;53.572;10.170;2023-05-10T11:18:24;15.60;99.90
50606;DHT22;36557;53.572;10.170;2023-05-10T11:20:51;15.40;99.90
50606;DHT22;36557;53.572;10.170;2023-05-10T11:23:17;15.60;99.90
50606;DHT22;36557;53.572;10.170;2023-05-10T11:25:44;15.80;99.90
50606;DHT22;36557;53.572;10.170;2023-05-10T11:28:14;15.70;99.90
50606;DHT22;36557;53.572;10.170;2023-05-10T11:30:40;15.70;99.90
50606;DHT22;36557;53.572;10.170;2023-05-10T11:33:07;15.90;99.90
50606;DHT22;36557;53.572;10.170;2023-05-10T11:35:40;15.70;99.90
50606;DHT22;36557;53.572;10.170;2023-05-10T11:38:11;15.60;99.90
50606;DHT22;36557;53.572;10.170;2023-05-10T11:40:38;15.60;99.90
50606;DHT22;36557;53.572;10.170;2023-05-10T11:43:04;15.60;99.90
50606;DHT22;36557;53.572;10.170;2023-05-10T11:48:59;15.80;99.90
50606;DHT22;36557;53.572;10.170;2023-05-10T11:51:40;15.70;99.90
50606;DHT22;36557;53.572;10.170;2023-05-10T11:54:09;16.00;99.90
50606;DHT22;36557;53.572;10.170;2023-05-10T11:56:35;16.50;99.90
50606;DHT22;36557;53.572;10.170;2023-05-10T11:59:01;16.40;99.90
50606;DHT22;36557;53.572;10.170;2023-05-10T12:01:28;16.40;99.90
50606;DHT22;36557;53.572;10.170;2023-05-10T12:03:55;16.20;99.90
50606;DHT22;36557;53.572;10.170;2023-05-10T12:06:26;16.30;99.90
50606;DHT22;36557;53.572;10.170;2023-05-10T12:08:52;16.20;99.90
50606;DHT22;36557;53.572;10.170;2023-05-10T12:11:19;16.30;99.90
50606;DHT22;36557;53.572;10.170;2023-05-10T12:13:47;16.20;99.90
50606;DHT22;36557;53.572;10.170;2023-05-10T12:16:18;16.50;99.90
50606;DHT22;36557;53.572;10.170;2023-05-10T12:18:44;16.50;99.90
50606;DHT22;36557;53.572;10.170;2023-05-10T12:21:12;16.30;99.90
50606;DHT22;36557;53.572;10.170;2023-05-10T12:23:41;16.00;99.90
50606;DHT22;36557;53.572;10.170;2023-05-10T12:26:09;16.10;99.90
50606;DHT22;36557;53.572;10.170;2023-05-10T12:28:35;16.00;99.90
50606;DHT22;36557;53.572;10.170;2023-05-10T12:31:02;16.10;99.90
50606;DHT22;36557;53.572;10.170;2023-05-10T12:33:38;16.20;99.90
50606;DHT22;36557;53.572;10.170;2023-05-10T12:36:05;16.00;99.90
50606;DHT22;36557;53.572;10.170;2023-05-10T12:38:34;16.30;99.90
50606;DHT22;36557;53.572;10.170;2023-05-10T12:41:02;16.20;99.90
50606;DHT22;36557;53.572;10.170;2023-05-10T12:43:29;16.10;99.90
50606;DHT22;36557;53.572;10.170;2023-05-10T12:45:55;16.10;99.90
50606;DHT22;36557;53.572;10.170;2023-05-10T12:48:21;16.20;99.90
50606;DHT22;36557;53.572;10.170;2023-05-10T12:50:47;16.60;99.90
50606;DHT22;36557;53.572;10.170;2023-05-10T12:53:14;16.80;99.90
50606;DHT22;36557;53.572;10.170;2023-05-10T12:55:41;16.60;99.90
50606;DHT22;36557;53.572;10.170;2023-05-10T12:58:07;16.80;99.90
50606;DHT22;36557;53.572;10.170;2023-05-10T13:00:33;17.10;99.90
50606;DHT22;36557;53.572;10.170;2023-05-10T13:02:59;17.20;99.90
50606;DHT22;36557;53.572;10.170;2023-05-10T13:05:24;17.20;99.90
50606;DHT22;36557;53.572;10.170;2023-05-10T13:07:50;17.10;99.90
50606;DHT22;36557;53.572;10.170;2023-05-10T13:10:16;17.20;99.90
50606;DHT22;36557;53.572;10.170;2023-05-10T13:12:42;17.30;99.90
50606;DHT22;36557;53.572;10.170;2023-05-10T13:15:08;17.10;99.90
50606;DHT22;36557;53.572;10.170;2023-05-10T13:17:33;17.20;99.90
50606;DHT22;36557;53.572;10.170;2023-05-10T13:19:59;17.30;99.90
50606;DHT22;36557;53.572;10.170;2023-05-10T13:22:25;17.20;99.90
50606;DHT22;36557;53.572;10.170;2023-05-10T13:24:50;17.20;99.90
50606;DHT22;36557;53.572;10.170;2023-05-10T13:27:16;17.40;99.90
50606;DHT22;36557;53.572;10.170;2023-05-10T13:29:42;17.40;99.90
50606;DHT22;36557;53.572;10.170;2023-05-10T13:32:07;17.40;99.90
50606;DHT22;36557;53.572;10.170;2023-05-10T13:34:33;17.60;99.90
50606;DHT22;36557;53.572;10.170;2023-05-10T13:37:01;17.50;99.90
50606;DHT22;36557;53.572;10.170;2023-05-10T13:39:27;17.70;99.90
50606;DHT22;36557;53.572;10.170;2023-05-10T13:41:52;17.90;99.90
50606;DHT22;36557;53.572;10.170;2023-05-10T13:44:19;18.00;99.90
50606;DHT22;36557;53.572;10.170;2023-05-10T13:46:46;17.80;99.90
50606;DHT22;36557;53.572;10.170;2023-05-10T13:49:11;17.80;99.90
50606;DHT22;36557;53.572;10.170;2023-05-10T13:51:37;17.50;99.90
50606;DHT22;36557;53.572;10.170;2023-05-10T13:54:03;17.80;99.90
50606;DHT22;36557;53.572;10.170;2023-05-10T13:56:29;17.50;99.90
50606;DHT22;36557;53.572;10.170;2023-05-10T13:58:56;18.00;99.90
50606;DHT22;36557;53.572;10.170;2023-05-10T14:01:25;18.20;99.90
50606;DHT22;36557;53.572;10.170;2023-05-10T14:03:51;18.50;99.90
50606;DHT22;36557;53.572;10.170;2023-05-10T14:06:16;18.60;99.90
50606;DHT22;36557;53.572;10.170;2023-05-10T14:08:42;18.60;99.90
50606;DHT22;36557;53.572;10.170;2023-05-10T14:11:08;18.30;99.90
50606;DHT22;36557;53.572;10.170;2023-05-10T14:13:34;18.00;99.90
50606;DHT22;36557;53.572;10.170;2023-05-10T14:16:00;18.30;99.90
50606;DHT22;36557;53.572;10.170;2023-05-10T14:18:28;18.20;99.90
50606;DHT22;36557;53.572;10.170;2023-05-10T14:20:54;18.20;99.90
50606;DHT22;36557;53.572;10.170;2023-05-10T14:23:21;18.30;99.90
50606;DHT22;36557;53.572;10.170;2023-05-10T14:25:50;18.30;99.90
50606;DHT22;36557;53.572;10.170;2023-05-10T14:28:16;18.20;99.90
50606;DHT22;36557;53.572;10.170;2023-05-10T14:30:43;18.30;99.90
50606;DHT22;36557;53.572;10.170;2023-05-10T14:33:09;18.40;99.90
50606;DHT22;36557;53.572;10.170;2023-05-10T14:35:35;18.30;99.90
50606;DHT22;36557;53.572;10.170;2023-05-10T14:38:02;18.30;99.90
50606;DHT22;36557;53.572;10.170;2023-05-10T14:40:29;18.40;99.90
50606;DHT22;36557;53.572;10.170;2023-05-10T14:42:55;18.30;99.90
50606;DHT22;36557;53.572;10.170;2023-05-10T14:45:22;18.50;99.90
50606;DHT22;36557;53.572;10.170;2023-05-10T14:47:49;18.50;99.90
50606;DHT22;36557;53.572;10.170;2023-05-10T14:50:14;18.40;99.90
50606;DHT22;36557;53.572;10.170;2023-05-10T14:52:42;18.20;99.90
50606;DHT22;36557;53.572;10.170;2023-05-10T14:55:08;18.40;99.90
50606;DHT22;36557;53.572;10.170;2023-05-10T14:57:34;18.00;99.90
50606;DHT22;36557;53.572;10.170;2023-05-10T15:00:00;17.80;99.90
50606;DHT22;36557;53.572;10.170;2023-05-10T15:02:25;17.90;99.90
50606;DHT22;36557;53.572;10.170;2023-05-10T15:04:51;17.90;99.90
50606;DHT22;36557;53.572;10.170;2023-05-10T15:07:17;17.80;99.90
50606;DHT22;36557;53.572;10.170;2023-05-10T15:09:44;18.10;99.90
50606;DHT22;36557;53.572;10.170;2023-05-10T15:12:10;18.60;99.90
50606;DHT22;36557;53.572;10.170;2023-05-10T15:14:36;18.60;99.90
50606;DHT22;36557;53.572;10.170;2023-05-10T15:17:02;18.60;99.90
50606;DHT22;36557;53.572;10.170;2023-05-10T15:19:28;18.40;99.90
50606;DHT22;36557;53.572;10.170;2023-05-10T15:21:58;18.30;99.90
50606;DHT22;36557;53.572;10.170;2023-05-10T15:24:24;18.60;99.90
50606;DHT22;36557;53.572;10.170;2023-05-10T15:26:50;18.40;99.90
50606;DHT22;36557;53.572;10.170;2023-05-10T15:29:16;18.60;99.90
50606;DHT22;36557;53.572;10.170;2023-05-10T15:31:49;18.60;99.90
50606;DHT22;36557;53.572;10.170;2023-05-10T15:34:15;18.80;99.90
50606;DHT22;36557;53.572;10.170;2023-05-10T15:36:40;18.50;99.90
50606;DHT22;36557;53.572;10.170;2023-05-10T15:39:06;18.70;99.90
50606;DHT22;36557;53.572;10.170;2023-05-10T15:41:32;19.40;99.90
50606;DHT22;36557;53.572;10.170;2023-05-10T15:43:58;19.20;99.90
50606;DHT22;36557;53.572;10.170;2023-05-10T15:46:25;19.10;99.90
50606;DHT22;36557;53.572;10.170;2023-05-10T15:48:51;18.70;99.90
50606;DHT22;36557;53.572;10.170;2023-05-10T15:51:17;18.70;99.90
50606;DHT22;36557;53.572;10.170;2023-05-10T15:53:44;18.80;99.90
50606;DHT22;36557;53.572;10.170;2023-05-10T15:56:10;18.50;99.90
50606;DHT22;36557;53.572;10.170;2023-05-10T15:58:37;18.40;99.90
50606;DHT22;36557;53.572;10.170;2023-05-10T16:01:03;18.80;99.90
50606;DHT22;36557;53.572;10.170;2023-05-10T16:03:30;18.70;99.90
50606;DHT22;36557;53.572;10.170;2023-05-10T16:05:56;18.20;99.90
50606;DHT22;36557;53.572;10.170;2023-05-10T16:08:22;18.30;99.90
50606;DHT22;36557;53.572;10.170;2023-05-10T16:10:49;18.30;99.90
50606;DHT22;36557;53.572;10.170;2023-05-10T16:13:15;18.00;99.90
50606;DHT22;36557;53.572;10.170;2023-05-10T16:15:41;18.00;99.90
50606;DHT22;36557;53.572;10.170;2023-05-10T16:18:07;18.00;99.90
50606;DHT22;36557;53.572;10.170;2023-05-10T16:20:33;17.80;99.90
50606;DHT22;36557;53.572;10.170;2023-05-10T16:23:08;18.00;99.90
50606;DHT22;36557;53.572;10.170;2023-05-10T16:25:33;17.80;99.90
50606;DHT22;36557;53.572;10.170;2023-05-10T16:28:00;17.80;99.90
50606;DHT22;36557;53.572;10.170;2023-05-10T16:30:26;17.60;99.90
50606;DHT22;36557;53.572;10.170;2023-05-10T16:32:57;17.50;99.90
50606;DHT22;36557;53.572;10.170;2023-05-10T16:35:23;17.50;99.90
50606;DHT22;36557;53.572;10.170;2023-05-10T16:37:49;17.30;99.90
50606;DHT22;36557;53.572;10.170;2023-05-10T16:40:16;17.30;99.90
50606;DHT22;36557;53.572;10.170;2023-05-10T16:42:41;17.20;99.90
50606;DHT22;36557;53.572;10.170;2023-05-10T16:45:08;17.00;99.90
50606;DHT22;36557;53.572;10.170;2023-05-10T16:47:35;17.00;99.90
50606;DHT22;36557;53.572;10.170;2023-05-10T16:50:02;16.90;99.90
50606;DHT22;36557;53.572;10.170;2023-05-10T16:52:31;16.70;99.90
50606;DHT22;36557;53.572;10.170;2023-05-10T16:54:57;16.50;99.90
50606;DHT22;36557;53.572;10.170;2023-05-10T16:57:23;16.40;99.90
50606;DHT22;36557;53.572;10.170;2023-05-10T16:59:49;16.50;99.90
50606;DHT22;36557;53.572;10.170;2023-05-10T17:02:23;16.50;99.90
50606;DHT22;36557;53.572;10.170;2023-05-10T17:05:05;16.50;99.90
50606;DHT22;36557;53.572;10.170;2023-05-10T17:07:43;16.50;99.90
50606;DHT22;36557;53.572;10.170;2023-05-10T17:10:51;16.50;99.90
50606;DHT22;36557;53.572;10.170;2023-05-10T17:13:43;16.50;99.90
50606;DHT22;36557;53.572;10.170;2023-05-10T17:16:58;16.60;99.90
50606;DHT22;36557;53.572;10.170;2023-05-10T17:19:43;16.70;99.90
50606;DHT22;36557;53.572;10.170;2023-05-10T17:22:40;16.70;99.90
50606;DHT22;36557;53.572;10.170;2023-05-10T17:25:51;16.60;99.90
50606;DHT22;36557;53.572;10.170;2023-05-10T17:28:47;16.80;99.90
50606;DHT22;36557;53.572;10.170;2023-05-10T17:31:30;16.70;99.90
50606;DHT22;36557;53.572;10.170;2023-05-10T17:34:10;16.70;99.90
50606;DHT22;36557;53.572;10.170;2023-05-10T17:37:35;16.60;99.90
50606;DHT22;36557;53.572;10.170;2023-05-10T17:40:43;16.70;99.90
50606;DHT22;36557;53.572;10.170;2023-05-10T17:44:03;16.50;99.90
50606;DHT22;36557;53.572;10.170;2023-05-10T17:46:58;16.40;99.90
50606;DHT22;36557;53.572;10.170;2023-05-10T17:49:46;16.50;99.90
50606;DHT22;36557;53.572;10.170;2023-05-10T17:52:38;16.40;99.90
50606;DHT22;36557;53.572;10.170;2023-05-10T17:55:21;16.30;99.90
50606;DHT22;36557;53.572;10.170;2023-05-10T17:58:23;16.30;99.90
50606;DHT22;36557;53.572;10.170;2023-05-10T18:01:22;16.30;99.90
50606;DHT22;36557;53.572;10.170;2023-05-10T18:04:01;16.30;99.90
50606;DHT22;36557;53.572;10.170;2023-05-10T18:07:14;16.30;99.90
50606;DHT22;36557;53.572;10.170;2023-05-10T18:09:56;16.20;99.90
50606;DHT22;36557;53.572;10.170;2023-05-10T18:12:50;16.20;99.90
50606;DHT22;36557;53.572;10.170;2023-05-10T18:16:09;16.00;99.90
50606;DHT22;36557;53.572;10.170;2023-05-10T18:18:46;15.80;99.90
50606;DHT22;36557;53.572;10.170;2023-05-10T18:21:16;15.80;99.90
50606;DHT22;36557;53.572;10.170;2023-05-10T18:23:45;15.70;99.90
50606;DHT22;36557;53.572;10.170;2023-05-10T18:26:20;15.70;99.90
50606;DHT22;36557;53.572;10.170;2023-05-10T18:28:56;15.50;99.90
50606;DHT22;36557;53.572;10.170;2023-05-10T18:31:22;15.50;99.90
50606;DHT22;36557;53.572;10.170;2023-05-10T18:33:48;15.20;99.90
50606;DHT22;36557;53.572;10.170;2023-05-10T18:36:14;15.30;99.90
50606;DHT22;36557;53.572;10.170;2023-05-10T18:38:40;15.10;99.90
50606;DHT22;36557;53.572;10.170;2023-05-10T18:41:05;15.00;99.90
50606;DHT22;36557;53.572;10.170;2023-05-10T18:43:31;15.00;99.90
50606;DHT22;36557;53.572;10.170;2023-05-10T18:46:00;15.00;99.90
50606;DHT22;36557;53.572;10.170;2023-05-10T18:48:26;15.00;99.90
50606;DHT22;36557;53.572;10.170;2023-05-10T18:50:52;14.80;99.90
50606;DHT22;36557;53.572;10.170;2023-05-10T18:53:17;14.70;99.90
50606;DHT22;36557;53.572;10.170;2023-05-10T18:55:43;14.90;99.90
50606;DHT22;36557;53.572;10.170;2023-05-10T18:58:09;14.80;99.90
50606;DHT22;36557;53.572;10.170;2023-05-10T19:00:34;14.80;99.90
50606;DHT22;36557;53.572;10.170;2023-05-10T19:03:00;14.80;99.90
50606;DHT22;36557;53.572;10.170;2023-05-10T19:05:29;14.70;99.90
50606;DHT22;36557;53.572;10.170;2023-05-10T19:07:56;14.60;99.90
50606;DHT22;36557;53.572;10.170;2023-05-10T19:10:21;14.50;99.90
50606;DHT22;36557;53.572;10.170;2023-05-10T19:12:47;14.60;99.90
50606;DHT22;36557;53.572;10.170;2023-05-10T19:15:13;14.60;99.90
50606;DHT22;36557;53.572;10.170;2023-05-10T19:17:39;14.40;99.90
50606;DHT22;36557;53.572;10.170;2023-05-10T19:20:05;14.20;99.90
50606;DHT22;36557;53.572;10.170;2023-05-10T19:22:32;14.20;99.90
50606;DHT22;36557;53.572;10.170;2023-05-10T19:24:58;14.20;99.90
50606;DHT22;36557;53.572;10.170;2023-05-10T19:27:23;14.10;99.90
50606;DHT22;36557;53.572;10.170;2023-05-10T19:29:49;14.10;99.90
50606;DHT22;36557;53.572;10.170;2023-05-10T19:32:16;14.20;99.90
50606;DHT22;36557;53.572;10.170;2023-05-10T19:34:41;14.20;99.90
50606;DHT22;36557;53.572;10.170;2023-05-10T19:37:07;14.20;99.90
50606;DHT22;36557;53.572;10.170;2023-05-10T19:39:33;14.10;99.90
50606;DHT22;36557;53.572;10.170;2023-05-10T19:41:59;14.10;99.90
50606;DHT22;36557;53.572;10.170;2023-05-10T19:44:25;14.10;99.90
50606;DHT22;36557;53.572;10.170;2023-05-10T19:46:51;14.00;99.90
50606;DHT22;36557;53.572;10.170;2023-05-10T19:49:16;14.00;99.90
50606;DHT22;36557;53.572;10.170;2023-05-10T19:51:42;13.80;99.90
50606;DHT22;36557;53.572;10.170;2023-05-10T19:54:08;13.90;99.90
50606;DHT22;36557;53.572;10.170;2023-05-10T19:56:34;13.90;99.90
50606;DHT22;36557;53.572;10.170;2023-05-10T19:59:00;14.10;99.90
50606;DHT22;36557;53.572;10.170;2023-05-10T20:01:27;13.90;99.90
50606;DHT22;36557;53.572;10.170;2023-05-10T20:03:53;14.00;99.90
50606;DHT22;36557;53.572;10.170;2023-05-10T20:06:19;14.00;99.90
50606;DHT22;36557;53.572;10.170;2023-05-10T20:08:45;13.90;99.90
50606;DHT22;36557;53.572;10.170;2023-05-10T20:11:10;13.90;99.90
50606;DHT22;36557;53.572;10.170;2023-05-10T20:13:37;13.80;99.90
50606;DHT22;36557;53.572;10.170;2023-05-10T20:16:03;13.70;99.90
50606;DHT22;36557;53.572;10.170;2023-05-10T20:18:30;13.60;99.90
50606;DHT22;36557;53.572;10.170;2023-05-10T20:20:58;13.60;99.90
50606;DHT22;36557;53.572;10.170;2023-05-10T20:23:24;13.70;99.90
50606;DHT22;36557;53.572;10.170;2023-05-10T20:25:50;13.60;99.90
50606;DHT22;36557;53.572;10.170;2023-05-10T20:28:23;13.60;99.90
50606;DHT22;36557;53.572;10.170;2023-05-10T20:30:51;13.50;99.90
50606;DHT22;36557;53.572;10.170;2023-05-10T20:33:17;13.40;99.90
